WetterOnline ( https://www.wetteronline.ch )

Wetter aktuell Marburg

Aktuelles Wetter: Neu-Ulrichstein (350m)

6-stündlich | Neueste Meldungen
Ortszeit Temperatur Wetter
Mo, 08.03. 1:00 -1.5° C bedeckt
So, 07.03. 19:00 0.5° C wolkenlos
So, 07.03. 13:00 4.5° C fast wolkenlos
So, 07.03. 7:00 -3.4° C wolkenlos
So, 07.03. 1:00 -1.5° C wolkig
Sa, 06.03. 19:00 1.2° C wolkig
Sa, 06.03. 13:00 3.7° C leicht bewölkt
Sa, 06.03. 7:00 -4.3° C wolkenlos
Ortszeit Temperatur Wetter
Mo, 08.03. 1:30 -1.6° C bewölkt
Mo, 08.03. 1:20 -1.6° C bewölkt
Mo, 08.03. 1:10 -1.6° C bewölkt
Mo, 08.03. 1:00 -1.5° C bedeckt
Mo, 08.03. 0:50 -1.5° C bedeckt
Mo, 08.03. 0:40 -1.4° C bedeckt
Mo, 08.03. 0:30 -1.8° C bewölkt
Mo, 08.03. 0:00 -1.4° C fast wolkenlos
Ortszeit Relative Feuchte Sichtweite
Mo, 08.03. 1:00 77% 40 km
So, 07.03. 19:00 71% 40 km
So, 07.03. 13:00 44% 45 km
So, 07.03. 7:00 85% 30 km
So, 07.03. 1:00 71% 50 km
Sa, 06.03. 19:00 58% 55 km
Sa, 06.03. 13:00 52% 40 km
Sa, 06.03. 7:00 83% 35 km
Ortszeit Relative Feuchte Sichtweite
Mo, 08.03. 1:30 78% 35 km
Mo, 08.03. 1:20 78% -
Mo, 08.03. 1:10 79% -
Mo, 08.03. 1:00 77% 40 km
Mo, 08.03. 0:50 77% -
Mo, 08.03. 0:40 77% -
Mo, 08.03. 0:30 80% 29 km
Mo, 08.03. 0:00 74% 35 km
Ortszeit Niederschlagsmenge Niederschlagsart
Mo, 08.03. 1:00 0.0 l/m2 in 6 Std. -
So, 07.03. 19:00 0.0 l/m2 in 12 Std. -
So, 07.03. 13:00 0.0 l/m2 in 6 Std. -
So, 07.03. 7:00 0.0 l/m2 in 12 Std. -
So, 07.03. 1:00 0.0 l/m2 in 6 Std. -
Sa, 06.03. 19:00 0.0 l/m2 in 12 Std. -
Sa, 06.03. 13:00 0.0 l/m2 in 6 Std. -
Sa, 06.03. 7:00 0.0 l/m2 in 12 Std. -
Ortszeit Niederschlagsmenge Niederschlagsart
Mo, 08.03. 1:30 0.0 l/m2 in 1 Std. -
Mo, 08.03. 1:20 keine Meldung -
Mo, 08.03. 1:10 keine Meldung -
Mo, 08.03. 1:00 0.0 l/m2 in 1 Std. -
Mo, 08.03. 0:50 keine Meldung -
Mo, 08.03. 0:40 keine Meldung -
Mo, 08.03. 0:30 0.0 l/m2 in 1 Std. -
Mo, 08.03. 0:00 0.0 l/m2 in 1 Std. -
Ortszeit Stärke Spitze Richtung
km/h Bft. km/h Grad Sektor
Mo, 08.03. 1:00 6 1 17 290° W
So, 07.03. 19:00 17 3 30 30° NO
So, 07.03. 13:00 4 1 14 310° NW
So, 07.03. 7:00 7 2 11 330° NW
So, 07.03. 1:00 7 2 14 70° O
Sa, 06.03. 19:00 9 2 22 10° N
Sa, 06.03. 13:00 4 1 11 280° W
Sa, 06.03. 7:00 6 1 9 290° W
Ortszeit Stärke Spitze Richtung
km/h Bft. km/h Grad Sektor
Mo, 08.03. 1:30 7 2 11 270° W
Mo, 08.03. 1:20 7 2 - 270° W
Mo, 08.03. 1:10 7 2 - 270° W
Mo, 08.03. 1:00 6 1 13 290° W
Mo, 08.03. 0:50 6 1 - 290° W
Mo, 08.03. 0:40 6 1 - 340° N
Mo, 08.03. 0:30 9 2 11 280° W
Mo, 08.03. 0:00 6 1 7 290° W
Ortszeit Untergrenze Bedeckung Gattung
total tief tief mittel hoch
Mo, 08.03. 1:00 1290 m 8/8 8/8 - - -
So, 07.03. 19:00 - 0/8 0/8 - - -
So, 07.03. 13:00 9000 m 1/8 0/8 - - -
So, 07.03. 7:00 - 0/8 0/8 - - -
So, 07.03. 1:00 9000 m 7/8 0/8 - - -
Sa, 06.03. 19:00 8400 m 8/8 0/8 - - -
Sa, 06.03. 13:00 9000 m 8/8 0/8 - - -
Sa, 06.03. 7:00 - 0/8 0/8 - - -
Ortszeit Bedeckungsgrad in Achtel und Wolkenuntergrenze
Mo, 08.03. 1:30 7(1350m)
Mo, 08.03. 1:20 7(1350m)
Mo, 08.03. 1:10 7(1350m)
Mo, 08.03. 1:00 8(1290m)
Mo, 08.03. 0:50 8(1290m)
Mo, 08.03. 0:40 8(1290m)
Mo, 08.03. 0:30 7(1290m)
Mo, 08.03. 0:00 2(1290m)
Ortszeit Luftdruck NN (hPa) Tendenz (hPa in 3 Std.)
Mo, 08.03. 1:00 1023 - 0,4
So, 07.03. 19:00 1023 + 0,5
So, 07.03. 13:00 1024 - 1,5
So, 07.03. 7:00 1028 - 0,3
So, 07.03. 1:00 1030 - 1,3
Sa, 06.03. 19:00 1031 - 1,0
Sa, 06.03. 13:00 1034 - 0,4
Sa, 06.03. 7:00 1035 + 0,5
Ortszeit Luftdruck NN (hPa) Tendenz (hPa in 3 Std.)
Mo, 08.03. 1:30 1023 - 0,7
Mo, 08.03. 1:20 1023 keine Meldung
Mo, 08.03. 1:10 1023 keine Meldung
Mo, 08.03. 1:00 1023 - 0,4
Mo, 08.03. 0:50 1023 keine Meldung
Mo, 08.03. 0:40 1023 keine Meldung
Mo, 08.03. 0:30 1023 - 0,2
Mo, 08.03. 0:00 1023 0,0
Ortszeit Schneehöhe (cm)
Mo, 08.03. 1:00 0
So, 07.03. 19:00 0
So, 07.03. 13:00 0
So, 07.03. 7:00 0
So, 07.03. 1:00 0
Sa, 06.03. 19:00 0
Sa, 06.03. 13:00 0
Sa, 06.03. 7:00 0
Ortszeit Schneehöhe (cm)
Mo, 08.03. 1:30 0
Mo, 08.03. 1:20 0
Mo, 08.03. 1:10 0
Mo, 08.03. 1:00 0
Mo, 08.03. 0:50 0
Mo, 08.03. 0:40 0
Mo, 08.03. 0:30 0
Mo, 08.03. 0:00 0
Link zu dieser Seite / Seite empfehlen

Das Wetter in ...